Аэропорт: Борисполь. Киев

ICAO: UKBB

METAR:
2018/05/20 23:00
UKBB 202300Z 32002MPS CAVOK 06/04 Q1021 R88/CLRD// NOSIG
METAR:
2018/05/20 18:06
TAF TAF UKBB 201700Z 2018/2118 36006G11MPS 9999 SCT040 
      BECMG 2020/2021 34005G10MPS 
      TEMPO 2021/2106 2000 BR SCT007 
      BECMG 2112/2114 02005MPS